createdAt,value
2022-10-28T00:01:12.242Z,12.90
2022-10-28T00:03:51.021Z,12.86
2022-10-28T00:06:21.650Z,12.81
2022-10-28T00:08:49.729Z,12.74
2022-10-28T00:11:26.390Z,12.68
2022-10-28T00:13:55.989Z,12.60
2022-10-28T00:16:25.815Z,12.53
2022-10-28T00:18:54.467Z,12.46
2022-10-28T00:21:26.059Z,12.41
2022-10-28T00:23:53.869Z,12.35
2022-10-28T00:26:24.057Z,12.32
2022-10-28T00:28:57.045Z,12.29
2022-10-28T00:31:26.573Z,12.23
2022-10-28T00:33:54.575Z,12.17
2022-10-28T00:36:24.705Z,12.13
2022-10-28T00:38:53.847Z,12.10
2022-10-28T00:41:27.140Z,12.08
2022-10-28T00:44:00.561Z,12.08
2022-10-28T00:46:39.694Z,12.07
2022-10-28T00:49:17.324Z,12.03
2022-10-28T00:51:46.989Z,11.98
2022-10-28T00:54:16.506Z,11.95
2022-10-28T00:56:46.264Z,11.92
2022-10-28T00:59:20.043Z,11.90
2022-10-28T01:01:47.800Z,11.87
2022-10-28T01:04:16.521Z,11.82
2022-10-28T01:06:44.666Z,11.77
2022-10-28T01:09:12.339Z,11.70
2022-10-28T01:11:42.830Z,11.63
2022-10-28T01:14:21.964Z,11.54
2022-10-28T01:17:03.181Z,11.46
2022-10-28T01:19:52.922Z,11.41
2022-10-28T01:22:29.010Z,11.35
2022-10-28T01:25:24.764Z,11.28
2022-10-28T01:28:30.428Z,11.20
2022-10-28T01:31:09.935Z,11.12
2022-10-28T01:33:50.893Z,11.04
2022-10-28T01:36:27.981Z,11.00
2022-10-28T01:39:12.487Z,10.96
2022-10-28T01:41:51.046Z,10.91
2022-10-28T01:44:25.048Z,10.86
2022-10-28T01:47:08.695Z,10.80
2022-10-28T01:50:02.621Z,10.72
2022-10-28T01:52:31.856Z,10.64
2022-10-28T01:55:06.781Z,10.59
2022-10-28T01:57:36.849Z,10.54
2022-10-28T02:00:05.399Z,10.51
2022-10-28T02:02:40.647Z,10.48
2022-10-28T02:05:39.469Z,10.47
2022-10-28T02:08:20.352Z,10.44
2022-10-28T02:11:04.255Z,10.41
2022-10-28T02:13:46.416Z,10.37
2022-10-28T02:16:19.833Z,10.32
2022-10-28T02:19:00.106Z,10.27
2022-10-28T02:21:33.733Z,10.24
2022-10-28T02:24:09.858Z,10.20
2022-10-28T02:26:41.571Z,10.17
2022-10-28T02:29:19.696Z,10.13
2022-10-28T02:31:53.813Z,10.13
2022-10-28T02:34:36.812Z,10.16
2022-10-28T02:37:10.933Z,10.18
2022-10-28T02:39:41.913Z,10.18
2022-10-28T02:42:17.353Z,10.23
2022-10-28T02:44:49.119Z,10.32
2022-10-28T02:47:20.319Z,10.43
2022-10-28T02:49:52.187Z,10.57
2022-10-28T02:52:20.846Z,10.78
2022-10-28T02:54:57.019Z,10.93
2022-10-28T02:57:27.077Z,11.07
2022-10-28T02:59:57.721Z,11.21
2022-10-28T03:02:26.291Z,11.32
2022-10-28T03:04:54.140Z,11.41
2022-10-28T03:07:21.703Z,11.49
2022-10-28T03:09:49.479Z,11.57
2022-10-28T03:12:17.392Z,11.62
2022-10-28T03:14:44.970Z,11.67
2022-10-28T03:17:12.621Z,11.71
2022-10-28T03:19:40.165Z,11.73
2022-10-28T03:22:07.776Z,11.77
2022-10-28T03:24:35.315Z,11.80
2022-10-28T03:27:03.773Z,11.84
2022-10-28T03:29:31.509Z,11.87
2022-10-28T03:31:59.045Z,11.89
2022-10-28T03:34:26.558Z,11.92
2022-10-28T03:36:54.175Z,11.93
2022-10-28T03:39:21.728Z,11.94
2022-10-28T03:41:49.295Z,11.94
2022-10-28T03:44:16.821Z,11.95
2022-10-28T03:46:44.397Z,11.95
2022-10-28T03:49:11.905Z,11.94
2022-10-28T03:51:39.413Z,11.96
2022-10-28T03:54:07.018Z,11.96
2022-10-28T03:56:34.574Z,11.97
2022-10-28T03:59:02.107Z,11.96
2022-10-28T04:01:29.723Z,11.96
2022-10-28T04:03:57.384Z,11.94
2022-10-28T04:06:25.137Z,11.93
2022-10-28T04:08:52.653Z,11.93
2022-10-28T04:11:20.157Z,11.91
2022-10-28T04:13:47.872Z,11.89
2022-10-28T04:16:15.362Z,11.86
2022-10-28T04:18:42.855Z,11.85
2022-10-28T04:21:10.567Z,11.83
2022-10-28T04:23:38.126Z,11.79
2022-10-28T04:26:05.818Z,11.77
2022-10-28T04:28:33.425Z,11.76
2022-10-28T04:31:02.736Z,11.74
2022-10-28T04:33:31.047Z,11.73
2022-10-28T04:35:58.645Z,11.71
2022-10-28T04:38:26.251Z,11.70
2022-10-28T04:40:53.802Z,11.68
2022-10-28T04:43:21.388Z,11.66
2022-10-28T04:45:48.941Z,11.64
2022-10-28T04:48:16.469Z,11.63
2022-10-28T04:50:44.522Z,11.61
2022-10-28T04:53:13.133Z,11.59
2022-10-28T04:55:40.659Z,11.57
2022-10-28T04:58:09.624Z,11.55
2022-10-28T05:00:37.122Z,11.54
2022-10-28T05:03:04.647Z,11.54
2022-10-28T05:05:32.482Z,11.54
2022-10-28T05:08:00.069Z,11.53
2022-10-28T05:10:27.812Z,11.53
2022-10-28T05:12:55.462Z,11.54
2022-10-28T05:15:23.104Z,11.55
2022-10-28T05:17:50.884Z,11.57
2022-10-28T05:20:19.921Z,11.57
2022-10-28T05:22:49.097Z,11.57
2022-10-28T05:25:17.667Z,11.58
2022-10-28T05:27:45.661Z,11.58
2022-10-28T05:30:13.940Z,11.59
2022-10-28T05:32:41.845Z,11.60
2022-10-28T05:35:09.927Z,11.60
2022-10-28T05:37:38.179Z,11.62
2022-10-28T05:40:06.437Z,11.65
2022-10-28T05:42:33.931Z,11.67
2022-10-28T05:45:01.451Z,11.70
2022-10-28T05:47:28.954Z,11.72
2022-10-28T05:49:56.479Z,11.74
2022-10-28T05:52:24.042Z,11.75
2022-10-28T05:54:51.574Z,11.75
2022-10-28T05:57:19.106Z,11.77
2022-10-28T05:59:46.865Z,11.78
2022-10-28T06:02:15.061Z,11.81
2022-10-28T06:04:42.721Z,11.83
2022-10-28T06:07:10.268Z,11.84
2022-10-28T06:09:38.189Z,11.86
2022-10-28T06:12:05.233Z,11.87
2022-10-28T06:14:33.213Z,11.88
2022-10-28T06:17:02.128Z,11.89
2022-10-28T06:19:29.699Z,11.91
2022-10-28T06:21:57.221Z,11.93
2022-10-28T06:24:24.912Z,11.95
2022-10-28T06:26:52.431Z,11.97
2022-10-28T06:29:20.043Z,11.99
2022-10-28T06:31:47.641Z,12.00
2022-10-28T06:34:15.428Z,12.00
2022-10-28T06:36:42.969Z,12.01
2022-10-28T06:39:10.729Z,12.02
2022-10-28T06:41:38.238Z,12.03
2022-10-28T06:44:05.756Z,12.04
2022-10-28T06:46:35.358Z,12.08
2022-10-28T06:49:03.716Z,12.12
2022-10-28T06:51:32.038Z,12.19
2022-10-28T06:54:00.281Z,12.22
2022-10-28T06:56:27.933Z,12.26
2022-10-28T06:58:55.554Z,12.32
2022-10-28T07:01:29.367Z,12.35
2022-10-28T07:03:59.048Z,12.38
2022-10-28T07:06:26.587Z,12.40
2022-10-28T07:08:54.127Z,12.45
2022-10-28T07:11:21.691Z,12.50
2022-10-28T07:13:49.215Z,12.56
2022-10-28T07:16:16.738Z,12.60
2022-10-28T07:18:44.303Z,12.67
2022-10-28T07:21:12.282Z,12.73
2022-10-28T07:23:39.917Z,12.78
2022-10-28T07:26:07.525Z,12.84
2022-10-28T07:28:35.155Z,12.90
2022-10-28T07:31:03.260Z,12.97
2022-10-28T07:33:31.316Z,13.05
2022-10-28T07:35:59.177Z,13.14
2022-10-28T07:38:26.769Z,13.21
2022-10-28T07:40:54.330Z,13.31
2022-10-28T07:43:21.962Z,13.46
2022-10-28T07:45:55.889Z,13.63
2022-10-28T07:48:23.535Z,13.76
2022-10-28T07:50:51.274Z,13.87
2022-10-28T07:53:18.800Z,13.97
2022-10-28T07:55:56.180Z,14.02
2022-10-28T07:58:23.846Z,14.05
2022-10-28T08:00:51.897Z,14.07
2022-10-28T08:03:19.842Z,14.09
2022-10-28T08:05:47.886Z,14.10
2022-10-28T08:08:15.405Z,14.08
2022-10-28T08:10:43.144Z,14.06
2022-10-28T08:13:11.371Z,14.05
2022-10-28T08:15:38.940Z,14.05
2022-10-28T08:18:06.430Z,14.04
2022-10-28T08:20:33.965Z,14.02
2022-10-28T08:23:03.971Z,13.99
2022-10-28T08:25:34.633Z,13.93
2022-10-28T08:28:02.113Z,13.88
2022-10-28T08:30:36.554Z,13.84
2022-10-28T08:33:13.526Z,13.87
2022-10-28T08:35:42.255Z,13.89
2022-10-28T08:38:09.863Z,13.93
2022-10-28T08:40:54.231Z,14.00
2022-10-28T08:43:40.357Z,14.07
2022-10-28T08:46:24.775Z,14.14
2022-10-28T08:48:52.343Z,14.21
2022-10-28T08:51:30.161Z,14.28
2022-10-28T08:54:01.196Z,14.36
2022-10-28T08:56:33.718Z,14.44
2022-10-28T08:59:03.805Z,14.55
2022-10-28T09:01:44.442Z,14.65
2022-10-28T09:04:35.596Z,14.75
2022-10-28T09:07:03.986Z,14.84
2022-10-28T09:09:32.419Z,14.94
2022-10-28T09:12:23.255Z,15.06
2022-10-28T09:15:22.179Z,15.18
2022-10-28T09:17:57.138Z,15.29
2022-10-28T09:20:44.719Z,15.39
2022-10-28T09:23:22.156Z,15.51
2022-10-28T09:25:54.627Z,15.59
2022-10-28T09:28:31.186Z,15.67
2022-10-28T09:31:18.015Z,15.75
2022-10-28T09:34:01.447Z,15.83
2022-10-28T09:36:33.283Z,15.89
2022-10-28T09:39:01.945Z,15.98
2022-10-28T09:41:33.937Z,16.08
2022-10-28T09:44:08.719Z,16.19
2022-10-28T09:46:37.719Z,16.28
2022-10-28T09:49:11.786Z,16.38
2022-10-28T09:51:46.697Z,16.46
2022-10-28T09:54:14.985Z,16.52
2022-10-28T09:56:42.537Z,16.57
2022-10-28T09:59:13.858Z,16.66
2022-10-28T10:01:43.174Z,16.78
2022-10-28T10:04:18.960Z,16.91
2022-10-28T10:06:50.100Z,17.03
2022-10-28T10:09:24.852Z,17.14
2022-10-28T10:11:55.449Z,17.21
2022-10-28T10:14:28.722Z,17.29
2022-10-28T10:17:04.381Z,17.33
2022-10-28T10:19:57.930Z,17.41
2022-10-28T10:22:37.305Z,17.48
2022-10-28T10:25:23.566Z,17.54
2022-10-28T10:28:03.810Z,17.62
2022-10-28T10:30:33.992Z,17.69
2022-10-28T10:33:02.488Z,17.79
2022-10-28T10:35:39.136Z,17.87
2022-10-28T10:38:06.942Z,17.94
2022-10-28T10:40:50.325Z,18.01
2022-10-28T10:43:18.094Z,18.09
2022-10-28T10:45:58.990Z,18.16
2022-10-28T10:48:28.004Z,18.24
2022-10-28T10:50:56.033Z,18.34
2022-10-28T10:53:26.519Z,18.45
2022-10-28T10:56:02.273Z,18.55
2022-10-28T10:58:35.206Z,18.64
2022-10-28T11:01:05.183Z,18.72
2022-10-28T11:03:47.376Z,18.79
2022-10-28T11:06:23.912Z,18.86
2022-10-28T11:09:05.259Z,18.91
2022-10-28T11:11:40.413Z,18.96
2022-10-28T11:14:10.727Z,19.01
2022-10-28T11:16:58.629Z,19.08
2022-10-28T11:19:35.600Z,19.14
2022-10-28T11:22:33.020Z,19.19
2022-10-28T11:25:38.316Z,19.24
2022-10-28T11:28:40.022Z,19.28
2022-10-28T11:31:26.340Z,19.33
2022-10-28T11:34:31.236Z,19.39
2022-10-28T11:37:10.180Z,19.44
2022-10-28T11:40:06.667Z,19.48
2022-10-28T11:42:42.026Z,19.54
2022-10-28T11:45:24.959Z,19.57
2022-10-28T11:48:29.945Z,19.63
2022-10-28T11:51:10.070Z,19.68
2022-10-28T11:54:03.629Z,19.71
2022-10-28T11:56:42.244Z,19.75
2022-10-28T11:59:43.819Z,19.81
2022-10-28T12:02:33.640Z,19.85
2022-10-28T12:05:23.665Z,19.86
2022-10-28T12:08:01.320Z,19.84
2022-10-28T12:10:41.328Z,19.84
2022-10-28T12:13:14.004Z,19.85
2022-10-28T12:15:55.859Z,19.89
2022-10-28T12:18:33.682Z,19.92
2022-10-28T12:21:10.419Z,19.92
2022-10-28T12:23:39.195Z,19.93
2022-10-28T12:26:09.679Z,19.95
2022-10-28T12:28:42.142Z,19.96
2022-10-28T12:31:19.639Z,19.96
2022-10-28T12:33:50.044Z,19.93
2022-10-28T12:36:37.865Z,19.93
2022-10-28T12:39:18.659Z,19.91
2022-10-28T12:42:00.919Z,19.87
2022-10-28T12:44:29.561Z,19.87
2022-10-28T12:47:14.824Z,19.88
2022-10-28T12:50:08.040Z,19.89
2022-10-28T12:53:06.212Z,19.89
2022-10-28T12:55:42.836Z,19.89
2022-10-28T12:58:29.572Z,19.93
2022-10-28T13:01:08.417Z,19.97
2022-10-28T13:03:36.393Z,20.00
2022-10-28T13:06:43.812Z,20.04
2022-10-28T13:09:39.127Z,20.04
2022-10-28T13:12:16.243Z,20.01
2022-10-28T13:14:55.839Z,19.99
2022-10-28T13:17:46.449Z,19.94
2022-10-28T13:20:52.525Z,19.87
2022-10-28T13:23:29.746Z,19.78
2022-10-28T13:26:16.721Z,19.71
2022-10-28T13:28:49.401Z,19.67
2022-10-28T13:31:17.446Z,19.63
2022-10-28T13:33:52.699Z,19.61
2022-10-28T13:36:29.403Z,19.59
2022-10-28T13:39:00.012Z,19.58
2022-10-28T13:41:40.981Z,19.58
2022-10-28T13:44:23.181Z,19.57
2022-10-28T13:46:57.197Z,19.56
2022-10-28T13:49:35.098Z,19.56
2022-10-28T13:52:19.589Z,19.57
2022-10-28T13:54:48.184Z,19.57
2022-10-28T13:57:28.890Z,19.57
2022-10-28T14:00:22.230Z,19.55
2022-10-28T14:02:58.397Z,19.52
2022-10-28T14:05:46.687Z,19.50
2022-10-28T14:08:20.703Z,19.48
2022-10-28T14:11:13.957Z,19.46
2022-10-28T14:13:56.907Z,19.46
2022-10-28T14:16:31.301Z,19.45
2022-10-28T14:19:16.514Z,19.44
2022-10-28T14:21:50.124Z,19.43
2022-10-28T14:24:42.934Z,19.43
2022-10-28T14:27:15.221Z,19.40
2022-10-28T14:29:44.002Z,19.36
2022-10-28T14:32:55.397Z,19.33
2022-10-28T14:35:51.151Z,19.27
2022-10-28T14:38:38.757Z,19.21
2022-10-28T14:41:18.450Z,19.13
2022-10-28T14:43:58.271Z,19.05
2022-10-28T14:46:36.138Z,18.96
2022-10-28T14:49:04.244Z,18.85
2022-10-28T14:51:41.856Z,18.74
2022-10-28T14:54:15.461Z,18.66
2022-10-28T14:56:43.327Z,18.59
2022-10-28T14:59:24.075Z,18.51
2022-10-28T15:02:02.492Z,18.44
2022-10-28T15:04:30.388Z,18.39
2022-10-28T15:06:58.689Z,18.34
2022-10-28T15:09:31.057Z,18.30
2022-10-28T15:12:08.382Z,18.21
2022-10-28T15:14:41.039Z,18.16
2022-10-28T15:17:20.524Z,18.14
2022-10-28T15:19:51.612Z,18.11
2022-10-28T15:22:30.692Z,18.08
2022-10-28T15:25:25.676Z,18.07
2022-10-28T15:27:54.105Z,18.06
2022-10-28T15:30:24.019Z,18.07
2022-10-28T15:32:53.965Z,18.06
2022-10-28T15:35:27.777Z,18.04
2022-10-28T15:37:59.208Z,18.00
2022-10-28T15:40:32.389Z,17.98
2022-10-28T15:43:02.685Z,17.97
2022-10-28T15:45:32.433Z,17.97
2022-10-28T15:48:03.630Z,17.98
2022-10-28T15:50:33.371Z,17.99
2022-10-28T15:53:09.770Z,17.99
2022-10-28T15:56:06.954Z,17.98
2022-10-28T15:58:32.731Z,17.94
2022-10-28T16:01:00.397Z,17.92
2022-10-28T16:03:41.594Z,17.91
2022-10-28T16:06:29.377Z,17.89
2022-10-28T16:09:15.715Z,17.88
2022-10-28T16:11:47.674Z,17.87
2022-10-28T16:14:35.566Z,17.86
2022-10-28T16:17:16.071Z,17.84
2022-10-28T16:19:46.608Z,17.81
2022-10-28T16:22:14.312Z,17.80
2022-10-28T16:24:42.383Z,17.81
2022-10-28T16:27:22.300Z,17.82
2022-10-28T16:29:50.433Z,17.84
2022-10-28T16:32:22.907Z,17.85
2022-10-28T16:34:50.467Z,17.87
2022-10-28T16:37:27.403Z,17.87
2022-10-28T16:39:55.436Z,17.88
2022-10-28T16:42:23.648Z,17.87
2022-10-28T16:44:51.336Z,17.86
2022-10-28T16:47:20.730Z,17.84
2022-10-28T16:49:54.423Z,17.82
2022-10-28T16:52:28.827Z,17.80
2022-10-28T16:54:57.328Z,17.77
2022-10-28T16:57:25.639Z,17.74
2022-10-28T16:59:54.023Z,17.71
2022-10-28T17:02:30.818Z,17.67
2022-10-28T17:04:59.411Z,17.64
2022-10-28T17:07:27.824Z,17.62
2022-10-28T17:09:56.962Z,17.59
2022-10-28T17:12:26.634Z,17.58
2022-10-28T17:14:54.524Z,17.56
2022-10-28T17:17:22.098Z,17.54
2022-10-28T17:19:49.652Z,17.53
2022-10-28T17:22:17.408Z,17.50
2022-10-28T17:24:44.996Z,17.49
2022-10-28T17:27:13.271Z,17.46
2022-10-28T17:29:40.898Z,17.42
2022-10-28T17:32:08.642Z,17.40
2022-10-28T17:34:36.688Z,17.38
2022-10-28T17:37:04.642Z,17.37
2022-10-28T17:39:32.162Z,17.36
2022-10-28T17:42:00.180Z,17.37
2022-10-28T17:44:27.774Z,17.38
2022-10-28T17:46:55.323Z,17.38
2022-10-28T17:49:22.906Z,17.38
2022-10-28T17:51:51.437Z,17.38
2022-10-28T17:54:19.224Z,17.37
2022-10-28T17:56:47.836Z,17.36
2022-10-28T17:59:15.434Z,17.35
2022-10-28T18:01:43.057Z,17.33
2022-10-28T18:04:12.090Z,17.32
2022-10-28T18:06:39.707Z,17.30
2022-10-28T18:09:11.848Z,17.29
2022-10-28T18:11:39.952Z,17.26
2022-10-28T18:14:07.523Z,17.22
2022-10-28T18:16:37.091Z,17.19
2022-10-28T18:19:06.383Z,17.15
2022-10-28T18:21:34.485Z,17.11
2022-10-28T18:24:04.975Z,17.08
2022-10-28T18:26:35.056Z,17.04
2022-10-28T18:29:08.054Z,17.01
2022-10-28T18:31:37.569Z,16.98
2022-10-28T18:34:05.185Z,16.96
2022-10-28T18:36:35.505Z,16.96
2022-10-28T18:39:06.713Z,16.96
2022-10-28T18:41:42.188Z,16.97
2022-10-28T18:44:13.073Z,16.98
2022-10-28T18:46:40.950Z,16.98
2022-10-28T18:49:08.690Z,16.98
2022-10-28T18:51:36.832Z,16.98
2022-10-28T18:54:05.047Z,16.98
2022-10-28T18:56:35.403Z,16.98
2022-10-28T18:59:04.552Z,16.97
2022-10-28T19:01:33.506Z,16.96
2022-10-28T19:04:02.918Z,16.95
2022-10-28T19:06:32.712Z,16.95
2022-10-28T19:09:04.620Z,16.95
2022-10-28T19:11:33.985Z,16.92
2022-10-28T19:14:04.399Z,16.90
2022-10-28T19:16:35.439Z,16.87
2022-10-28T19:19:04.591Z,16.85
2022-10-28T19:21:32.944Z,16.81
2022-10-28T19:24:00.837Z,16.78
2022-10-28T19:26:31.994Z,16.76
2022-10-28T19:28:59.654Z,16.74
2022-10-28T19:31:27.851Z,16.73
2022-10-28T19:33:55.540Z,16.72
2022-10-28T19:36:26.244Z,16.71
2022-10-28T19:38:56.082Z,16.71
2022-10-28T19:41:29.781Z,16.72
2022-10-28T19:44:01.687Z,16.73
2022-10-28T19:46:35.504Z,16.72
2022-10-28T19:49:05.229Z,16.71
2022-10-28T19:51:39.072Z,16.70
2022-10-28T19:54:12.113Z,16.69
2022-10-28T19:56:40.363Z,16.67
2022-10-28T19:59:08.008Z,16.65
2022-10-28T20:01:38.091Z,16.65
2022-10-28T20:04:06.838Z,16.65
2022-10-28T20:06:37.273Z,16.62
2022-10-28T20:09:05.487Z,16.58
2022-10-28T20:11:35.476Z,16.54
2022-10-28T20:14:12.365Z,16.49
2022-10-28T20:16:43.620Z,16.44
2022-10-28T20:19:12.192Z,16.41
2022-10-28T20:21:39.795Z,16.37
2022-10-28T20:24:08.057Z,16.36
2022-10-28T20:26:37.975Z,16.35
2022-10-28T20:29:10.325Z,16.34
2022-10-28T20:31:39.059Z,16.31
2022-10-28T20:34:07.801Z,16.30
2022-10-28T20:36:38.633Z,16.26
2022-10-28T20:39:15.941Z,16.22
2022-10-28T20:41:46.029Z,16.17
2022-10-28T20:44:14.560Z,16.13
2022-10-28T20:46:42.395Z,16.08
2022-10-28T20:49:10.528Z,16.05
2022-10-28T20:51:38.072Z,16.02
2022-10-28T20:54:06.054Z,15.98
2022-10-28T20:56:37.215Z,15.96
2022-10-28T20:59:05.409Z,15.94
2022-10-28T21:01:35.836Z,15.92
2022-10-28T21:04:06.376Z,15.91
2022-10-28T21:06:34.537Z,15.89
2022-10-28T21:09:02.141Z,15.87
2022-10-28T21:11:29.794Z,15.87
2022-10-28T21:13:59.673Z,15.87
2022-10-28T21:16:28.410Z,15.86
2022-10-28T21:18:56.555Z,15.85
2022-10-28T21:21:24.938Z,15.85
2022-10-28T21:23:55.724Z,15.84
2022-10-28T21:26:23.311Z,15.83
2022-10-28T21:28:52.270Z,15.81
2022-10-28T21:31:21.239Z,15.79
2022-10-28T21:36:19.946Z,15.71
2022-10-28T21:38:47.948Z,15.67
2022-10-28T21:41:17.842Z,15.63
2022-10-28T21:43:50.387Z,15.59
2022-10-28T21:46:19.125Z,15.56
2022-10-28T21:48:47.066Z,15.53
2022-10-28T21:51:16.330Z,15.49
2022-10-28T21:53:44.746Z,15.45
2022-10-28T21:56:18.845Z,15.42
2022-10-28T21:58:48.961Z,15.40
2022-10-28T22:01:19.827Z,15.37
2022-10-28T22:03:47.555Z,15.35
2022-10-28T22:06:15.246Z,15.33
2022-10-28T22:08:42.892Z,15.32
2022-10-28T22:11:19.115Z,15.30
2022-10-28T22:14:01.594Z,15.28
2022-10-28T22:16:30.706Z,15.25
2022-10-28T22:18:59.913Z,15.25
2022-10-28T22:21:30.450Z,15.24
2022-10-28T22:23:57.984Z,15.23
2022-10-28T22:26:28.594Z,15.22
2022-10-28T22:28:57.033Z,15.21
2022-10-28T22:31:27.161Z,15.19
2022-10-28T22:33:55.350Z,15.18
2022-10-28T22:36:25.575Z,15.17
2022-10-28T22:38:53.380Z,15.16
2022-10-28T22:41:29.061Z,15.15
2022-10-28T22:43:58.641Z,15.12
2022-10-28T22:46:30.038Z,15.09
2022-10-28T22:48:57.797Z,15.07
2022-10-28T22:51:25.514Z,15.05
2022-10-28T22:53:53.322Z,15.02
2022-10-28T22:56:24.287Z,14.99
2022-10-28T22:58:54.609Z,14.95
2022-10-28T23:01:23.222Z,14.93
2022-10-28T23:03:52.942Z,14.92
2022-10-28T23:06:23.352Z,14.90
2022-10-28T23:08:51.001Z,14.88
2022-10-28T23:11:19.983Z,14.87
2022-10-28T23:13:52.736Z,14.84
2022-10-28T23:16:21.248Z,14.80
2022-10-28T23:18:48.872Z,14.76
2022-10-28T23:21:21.378Z,14.73
2022-10-28T23:23:54.087Z,14.69
2022-10-28T23:26:23.049Z,14.64
2022-10-28T23:28:52.811Z,14.62
2022-10-28T23:31:20.978Z,14.60
2022-10-28T23:33:49.280Z,14.56
2022-10-28T23:36:16.847Z,14.54
2022-10-28T23:38:44.686Z,14.52
2022-10-28T23:41:16.016Z,14.50
2022-10-28T23:43:44.403Z,14.48
2022-10-28T23:46:12.285Z,14.47
2022-10-28T23:48:39.924Z,14.45
2022-10-28T23:51:07.697Z,14.44
2022-10-28T23:53:35.408Z,14.42
2022-10-28T23:56:03.034Z,14.41
2022-10-28T23:58:30.612Z,14.39
